sensor_id;sensor_type;location;lat;lon;timestamp;P1;durP1;ratioP1;P2;durP2;ratioP2
5662;SDS011;2854;42.692;23.364;2023-04-03T00:02:20;6.70;;;4.70;;
5662;SDS011;2854;42.692;23.364;2023-04-03T00:04:45;9.83;;;5.10;;
5662;SDS011;2854;42.692;23.364;2023-04-03T00:07:10;6.67;;;5.97;;
5662;SDS011;2854;42.692;23.364;2023-04-03T00:09:37;4.90;;;4.23;;
5662;SDS011;2854;42.692;23.364;2023-04-03T00:12:02;8.43;;;4.83;;
5662;SDS011;2854;42.692;23.364;2023-04-03T00:14:27;6.90;;;3.87;;
5662;SDS011;2854;42.692;23.364;2023-04-03T00:16:53;4.87;;;4.17;;
5662;SDS011;2854;42.692;23.364;2023-04-03T00:19:18;4.30;;;3.80;;
5662;SDS011;2854;42.692;23.364;2023-04-03T00:21:44;5.20;;;3.80;;
5662;SDS011;2854;42.692;23.364;2023-04-03T00:24:10;6.77;;;4.50;;
5662;SDS011;2854;42.692;23.364;2023-04-03T00:26:35;5.70;;;4.20;;
5662;SDS011;2854;42.692;23.364;2023-04-03T00:29:00;11.23;;;4.33;;
5662;SDS011;2854;42.692;23.364;2023-04-03T00:31:25;3.50;;;3.20;;
5662;SDS011;2854;42.692;23.364;2023-04-03T00:33:51;4.50;;;3.97;;
5662;SDS011;2854;42.692;23.364;2023-04-03T00:36:16;7.53;;;4.10;;
5662;SDS011;2854;42.692;23.364;2023-04-03T00:38:41;5.47;;;3.10;;
5662;SDS011;2854;42.692;23.364;2023-04-03T00:41:06;5.83;;;2.70;;
5662;SDS011;2854;42.692;23.364;2023-04-03T00:43:32;4.03;;;3.00;;
5662;SDS011;2854;42.692;23.364;2023-04-03T00:45:58;4.90;;;3.00;;
5662;SDS011;2854;42.692;23.364;2023-04-03T00:48:38;6.67;;;3.03;;
5662;SDS011;2854;42.692;23.364;2023-04-03T00:51:06;3.00;;;2.53;;
5662;SDS011;2854;42.692;23.364;2023-04-03T00:53:33;7.73;;;4.07;;
5662;SDS011;2854;42.692;23.364;2023-04-03T00:56:00;3.40;;;3.10;;
5662;SDS011;2854;42.692;23.364;2023-04-03T00:58:28;4.50;;;2.80;;
5662;SDS011;2854;42.692;23.364;2023-04-03T01:00:57;3.83;;;3.53;;
5662;SDS011;2854;42.692;23.364;2023-04-03T01:03:23;5.13;;;3.73;;
5662;SDS011;2854;42.692;23.364;2023-04-03T01:05:48;4.07;;;3.67;;
5662;SDS011;2854;42.692;23.364;2023-04-03T01:08:14;6.73;;;4.33;;
5662;SDS011;2854;42.692;23.364;2023-04-03T01:10:39;8.50;;;4.97;;
5662;SDS011;2854;42.692;23.364;2023-04-03T01:13:17;4.20;;;3.87;;
5662;SDS011;2854;42.692;23.364;2023-04-03T01:15:42;7.10;;;4.10;;
5662;SDS011;2854;42.692;23.364;2023-04-03T01:18:09;8.37;;;3.80;;
5662;SDS011;2854;42.692;23.364;2023-04-03T01:20:39;5.93;;;4.57;;
5662;SDS011;2854;42.692;23.364;2023-04-03T01:25:56;7.53;;;4.43;;
5662;SDS011;2854;42.692;23.364;2023-04-03T01:28:31;5.70;;;4.57;;
5662;SDS011;2854;42.692;23.364;2023-04-03T01:31:02;8.10;;;4.73;;
5662;SDS011;2854;42.692;23.364;2023-04-03T01:33:30;5.87;;;3.50;;
5662;SDS011;2854;42.692;23.364;2023-04-03T01:35:56;5.30;;;4.17;;
5662;SDS011;2854;42.692;23.364;2023-04-03T01:38:21;7.67;;;5.00;;
5662;SDS011;2854;42.692;23.364;2023-04-03T01:40:46;4.20;;;3.43;;
5662;SDS011;2854;42.692;23.364;2023-04-03T01:43:11;3.83;;;3.50;;
5662;SDS011;2854;42.692;23.364;2023-04-03T01:45:37;4.27;;;3.87;;
5662;SDS011;2854;42.692;23.364;2023-04-03T01:48:02;6.40;;;3.90;;
5662;SDS011;2854;42.692;23.364;2023-04-03T01:50:28;8.33;;;3.40;;
5662;SDS011;2854;42.692;23.364;2023-04-03T01:52:53;5.17;;;3.80;;
5662;SDS011;2854;42.692;23.364;2023-04-03T01:55:18;2.23;;;2.13;;
5662;SDS011;2854;42.692;23.364;2023-04-03T01:57:43;3.10;;;2.80;;
5662;SDS011;2854;42.692;23.364;2023-04-03T02:00:09;2.07;;;1.50;;
5662;SDS011;2854;42.692;23.364;2023-04-03T02:02:34;2.13;;;1.83;;
5662;SDS011;2854;42.692;23.364;2023-04-03T02:05:00;6.80;;;3.10;;
5662;SDS011;2854;42.692;23.364;2023-04-03T02:07:25;4.43;;;2.63;;
5662;SDS011;2854;42.692;23.364;2023-04-03T02:09:50;4.50;;;3.30;;
5662;SDS011;2854;42.692;23.364;2023-04-03T02:12:16;2.50;;;1.73;;
5662;SDS011;2854;42.692;23.364;2023-04-03T02:14:41;1.67;;;1.50;;
5662;SDS011;2854;42.692;23.364;2023-04-03T02:17:06;2.50;;;2.00;;
5662;SDS011;2854;42.692;23.364;2023-04-03T02:19:34;2.63;;;2.43;;
5662;SDS011;2854;42.692;23.364;2023-04-03T02:21:59;8.43;;;3.77;;
5662;SDS011;2854;42.692;23.364;2023-04-03T02:24:24;4.00;;;2.20;;
5662;SDS011;2854;42.692;23.364;2023-04-03T02:26:50;2.90;;;2.30;;
5662;SDS011;2854;42.692;23.364;2023-04-03T02:29:15;6.73;;;2.23;;
5662;SDS011;2854;42.692;23.364;2023-04-03T02:31:40;2.67;;;2.47;;
5662;SDS011;2854;42.692;23.364;2023-04-03T02:34:06;3.50;;;2.57;;
5662;SDS011;2854;42.692;23.364;2023-04-03T02:36:31;2.10;;;2.00;;
5662;SDS011;2854;42.692;23.364;2023-04-03T02:38:56;4.17;;;2.93;;
5662;SDS011;2854;42.692;23.364;2023-04-03T02:41:21;6.30;;;2.07;;
5662;SDS011;2854;42.692;23.364;2023-04-03T02:43:47;2.67;;;2.47;;
5662;SDS011;2854;42.692;23.364;2023-04-03T02:46:12;2.60;;;2.37;;
5662;SDS011;2854;42.692;23.364;2023-04-03T02:48:39;2.63;;;2.43;;
5662;SDS011;2854;42.692;23.364;2023-04-03T02:51:05;2.40;;;2.30;;
5662;SDS011;2854;42.692;23.364;2023-04-03T02:53:30;2.30;;;2.13;;
5662;SDS011;2854;42.692;23.364;2023-04-03T02:55:56;5.53;;;2.83;;
5662;SDS011;2854;42.692;23.364;2023-04-03T02:58:21;2.65;;;2.45;;
5662;SDS011;2854;42.692;23.364;2023-04-03T03:00:46;3.10;;;2.73;;
5662;SDS011;2854;42.692;23.364;2023-04-03T03:03:11;3.17;;;2.90;;
5662;SDS011;2854;42.692;23.364;2023-04-03T03:05:39;3.30;;;2.37;;
5662;SDS011;2854;42.692;23.364;2023-04-03T03:08:04;3.30;;;2.67;;
5662;SDS011;2854;42.692;23.364;2023-04-03T03:10:29;11.23;;;5.00;;
5662;SDS011;2854;42.692;23.364;2023-04-03T03:12:55;18.37;;;8.43;;
5662;SDS011;2854;42.692;23.364;2023-04-03T03:15:20;15.87;;;8.57;;
5662;SDS011;2854;42.692;23.364;2023-04-03T03:17:46;12.67;;;7.20;;
5662;SDS011;2854;42.692;23.364;2023-04-03T03:20:11;11.00;;;7.03;;
5662;SDS011;2854;42.692;23.364;2023-04-03T03:22:39;7.43;;;5.40;;
5662;SDS011;2854;42.692;23.364;2023-04-03T03:25:04;12.50;;;7.07;;
5662;SDS011;2854;42.692;23.364;2023-04-03T03:27:30;8.27;;;5.70;;
5662;SDS011;2854;42.692;23.364;2023-04-03T03:29:55;12.20;;;6.40;;
5662;SDS011;2854;42.692;23.364;2023-04-03T03:32:20;11.53;;;7.20;;
5662;SDS011;2854;42.692;23.364;2023-04-03T03:34:45;11.20;;;5.67;;
5662;SDS011;2854;42.692;23.364;2023-04-03T03:37:11;11.33;;;7.23;;
5662;SDS011;2854;42.692;23.364;2023-04-03T03:39:36;25.90;;;10.33;;
5662;SDS011;2854;42.692;23.364;2023-04-03T03:42:01;19.80;;;9.87;;
5662;SDS011;2854;42.692;23.364;2023-04-03T03:44:27;17.53;;;9.50;;
5662;SDS011;2854;42.692;23.364;2023-04-03T03:46:54;18.30;;;8.40;;
5662;SDS011;2854;42.692;23.364;2023-04-03T03:49:19;12.57;;;6.17;;
5662;SDS011;2854;42.692;23.364;2023-04-03T03:51:45;12.97;;;6.10;;
5662;SDS011;2854;42.692;23.364;2023-04-03T03:54:10;18.50;;;8.53;;
5662;SDS011;2854;42.692;23.364;2023-04-03T03:56:35;11.87;;;6.43;;
5662;SDS011;2854;42.692;23.364;2023-04-03T03:59:01;12.27;;;5.97;;
5662;SDS011;2854;42.692;23.364;2023-04-03T04:01:26;11.63;;;6.93;;
5662;SDS011;2854;42.692;23.364;2023-04-03T04:03:51;12.70;;;5.60;;
5662;SDS011;2854;42.692;23.364;2023-04-03T04:06:18;24.60;;;9.53;;
5662;SDS011;2854;42.692;23.364;2023-04-03T04:08:44;15.53;;;7.37;;
5662;SDS011;2854;42.692;23.364;2023-04-03T04:11:09;15.97;;;7.10;;
5662;SDS011;2854;42.692;23.364;2023-04-03T04:13:34;7.00;;;5.17;;
5662;SDS011;2854;42.692;23.364;2023-04-03T04:16:00;7.40;;;4.67;;
5662;SDS011;2854;42.692;23.364;2023-04-03T04:18:25;7.30;;;4.53;;
5662;SDS011;2854;42.692;23.364;2023-04-03T04:20:50;7.43;;;4.50;;
5662;SDS011;2854;42.692;23.364;2023-04-03T04:23:16;11.60;;;5.47;;
5662;SDS011;2854;42.692;23.364;2023-04-03T04:25:44;8.17;;;5.00;;
5662;SDS011;2854;42.692;23.364;2023-04-03T04:28:09;9.57;;;5.77;;
5662;SDS011;2854;42.692;23.364;2023-04-03T04:30:36;5.13;;;4.63;;
5662;SDS011;2854;42.692;23.364;2023-04-03T04:33:01;17.40;;;8.07;;
5662;SDS011;2854;42.692;23.364;2023-04-03T04:35:27;32.67;;;12.47;;
5662;SDS011;2854;42.692;23.364;2023-04-03T04:37:52;23.67;;;9.27;;
5662;SDS011;2854;42.692;23.364;2023-04-03T04:40:17;12.07;;;7.60;;
5662;SDS011;2854;42.692;23.364;2023-04-03T04:42:43;18.40;;;8.87;;
5662;SDS011;2854;42.692;23.364;2023-04-03T04:45:08;14.70;;;7.60;;
5662;SDS011;2854;42.692;23.364;2023-04-03T04:47:33;12.37;;;6.40;;
5662;SDS011;2854;42.692;23.364;2023-04-03T04:49:59;21.67;;;9.00;;
5662;SDS011;2854;42.692;23.364;2023-04-03T04:52:24;12.67;;;6.60;;
5662;SDS011;2854;42.692;23.364;2023-04-03T04:54:50;25.03;;;10.60;;
5662;SDS011;2854;42.692;23.364;2023-04-03T04:57:15;38.80;;;11.40;;
5662;SDS011;2854;42.692;23.364;2023-04-03T04:59:40;13.03;;;7.93;;
5662;SDS011;2854;42.692;23.364;2023-04-03T05:02:05;7.30;;;5.60;;
5662;SDS011;2854;42.692;23.364;2023-04-03T05:04:31;15.90;;;8.40;;
5662;SDS011;2854;42.692;23.364;2023-04-03T05:06:56;10.00;;;6.77;;
5662;SDS011;2854;42.692;23.364;2023-04-03T05:09:21;11.77;;;6.60;;
5662;SDS011;2854;42.692;23.364;2023-04-03T05:11:47;9.00;;;5.53;;
5662;SDS011;2854;42.692;23.364;2023-04-03T05:14:12;10.17;;;5.53;;
5662;SDS011;2854;42.692;23.364;2023-04-03T05:16:37;8.07;;;5.67;;
5662;SDS011;2854;42.692;23.364;2023-04-03T05:19:03;10.67;;;5.23;;
5662;SDS011;2854;42.692;23.364;2023-04-03T05:21:28;10.37;;;5.60;;
5662;SDS011;2854;42.692;23.364;2023-04-03T05:23:57;7.43;;;5.47;;
5662;SDS011;2854;42.692;23.364;2023-04-03T05:26:22;29.27;;;8.33;;
5662;SDS011;2854;42.692;23.364;2023-04-03T05:28:48;10.43;;;6.27;;
5662;SDS011;2854;42.692;23.364;2023-04-03T05:31:13;16.17;;;7.33;;
5662;SDS011;2854;42.692;23.364;2023-04-03T05:33:38;16.27;;;6.83;;
5662;SDS011;2854;42.692;23.364;2023-04-03T05:36:04;11.97;;;6.17;;
5662;SDS011;2854;42.692;23.364;2023-04-03T05:38:29;10.90;;;7.10;;
5662;SDS011;2854;42.692;23.364;2023-04-03T05:40:55;13.93;;;8.07;;
5662;SDS011;2854;42.692;23.364;2023-04-03T05:43:20;11.87;;;7.10;;
5662;SDS011;2854;42.692;23.364;2023-04-03T05:45:47;15.20;;;7.37;;
5662;SDS011;2854;42.692;23.364;2023-04-03T05:48:12;24.30;;;8.17;;
5662;SDS011;2854;42.692;23.364;2023-04-03T05:50:37;21.10;;;7.77;;
5662;SDS011;2854;42.692;23.364;2023-04-03T05:53:06;10.53;;;7.10;;
5662;SDS011;2854;42.692;23.364;2023-04-03T05:55:32;18.27;;;7.40;;
5662;SDS011;2854;42.692;23.364;2023-04-03T05:57:57;11.93;;;7.27;;
5662;SDS011;2854;42.692;23.364;2023-04-03T06:00:22;18.33;;;8.10;;
5662;SDS011;2854;42.692;23.364;2023-04-03T06:02:48;14.50;;;8.33;;
5662;SDS011;2854;42.692;23.364;2023-04-03T06:05:13;18.70;;;9.10;;
5662;SDS011;2854;42.692;23.364;2023-04-03T06:07:39;20.70;;;8.83;;
5662;SDS011;2854;42.692;23.364;2023-04-03T06:10:05;16.13;;;9.23;;
5662;SDS011;2854;42.692;23.364;2023-04-03T06:12:30;18.77;;;10.67;;
5662;SDS011;2854;42.692;23.364;2023-04-03T06:14:55;21.93;;;12.17;;
5662;SDS011;2854;42.692;23.364;2023-04-03T06:17:21;17.83;;;10.80;;
5662;SDS011;2854;42.692;23.364;2023-04-03T06:19:46;23.97;;;11.73;;
5662;SDS011;2854;42.692;23.364;2023-04-03T06:22:11;25.00;;;9.57;;
5662;SDS011;2854;42.692;23.364;2023-04-03T06:24:37;16.23;;;10.40;;
5662;SDS011;2854;42.692;23.364;2023-04-03T06:27:03;15.93;;;7.83;;
5662;SDS011;2854;42.692;23.364;2023-04-03T06:29:28;17.50;;;9.97;;
5662;SDS011;2854;42.692;23.364;2023-04-03T06:31:53;16.23;;;8.33;;
5662;SDS011;2854;42.692;23.364;2023-04-03T06:34:19;27.67;;;8.60;;
5662;SDS011;2854;42.692;23.364;2023-04-03T06:36:45;11.17;;;7.07;;
5662;SDS011;2854;42.692;23.364;2023-04-03T06:39:12;17.40;;;8.20;;
5662;SDS011;2854;42.692;23.364;2023-04-03T06:41:38;18.60;;;11.10;;
5662;SDS011;2854;42.692;23.364;2023-04-03T06:44:03;32.63;;;16.27;;
5662;SDS011;2854;42.692;23.364;2023-04-03T06:46:29;20.63;;;14.17;;
5662;SDS011;2854;42.692;23.364;2023-04-03T06:48:54;18.07;;;10.30;;
5662;SDS011;2854;42.692;23.364;2023-04-03T06:53:46;12.13;;;8.40;;
5662;SDS011;2854;42.692;23.364;2023-04-03T06:56:11;11.00;;;8.73;;
5662;SDS011;2854;42.692;23.364;2023-04-03T06:58:37;12.57;;;8.77;;
5662;SDS011;2854;42.692;23.364;2023-04-03T07:01:02;14.80;;;8.27;;
5662;SDS011;2854;42.692;23.364;2023-04-03T07:03:27;11.30;;;7.40;;
5662;SDS011;2854;42.692;23.364;2023-04-03T07:05:53;10.57;;;7.70;;
5662;SDS011;2854;42.692;23.364;2023-04-03T07:08:18;14.47;;;8.20;;
5662;SDS011;2854;42.692;23.364;2023-04-03T07:10:43;10.30;;;7.33;;
5662;SDS011;2854;42.692;23.364;2023-04-03T07:13:09;16.53;;;7.90;;
5662;SDS011;2854;42.692;23.364;2023-04-03T07:15:34;16.27;;;7.67;;
5662;SDS011;2854;42.692;23.364;2023-04-03T07:18:01;12.43;;;7.70;;
5662;SDS011;2854;42.692;23.364;2023-04-03T07:20:27;8.70;;;6.80;;
5662;SDS011;2854;42.692;23.364;2023-04-03T07:22:52;12.60;;;8.20;;
5662;SDS011;2854;42.692;23.364;2023-04-03T07:25:18;16.30;;;9.47;;
5662;SDS011;2854;42.692;23.364;2023-04-03T07:27:43;16.07;;;8.70;;
5662;SDS011;2854;42.692;23.364;2023-04-03T07:30:08;12.83;;;8.77;;
5662;SDS011;2854;42.692;23.364;2023-04-03T07:32:34;31.07;;;9.50;;
5662;SDS011;2854;42.692;23.364;2023-04-03T07:35:00;15.53;;;9.47;;
5662;SDS011;2854;42.692;23.364;2023-04-03T07:37:25;12.63;;;8.30;;
5662;SDS011;2854;42.692;23.364;2023-04-03T07:39:51;12.10;;;7.97;;
5662;SDS011;2854;42.692;23.364;2023-04-03T07:42:17;12.50;;;9.00;;
5662;SDS011;2854;42.692;23.364;2023-04-03T07:44:42;13.83;;;8.90;;
5662;SDS011;2854;42.692;23.364;2023-04-03T07:47:07;16.33;;;9.10;;
5662;SDS011;2854;42.692;23.364;2023-04-03T07:49:33;14.87;;;9.10;;
5662;SDS011;2854;42.692;23.364;2023-04-03T07:51:59;14.80;;;9.60;;
5662;SDS011;2854;42.692;23.364;2023-04-03T07:54:25;13.87;;;9.70;;
5662;SDS011;2854;42.692;23.364;2023-04-03T07:56:50;14.03;;;10.07;;
5662;SDS011;2854;42.692;23.364;2023-04-03T07:59:15;19.90;;;9.47;;
5662;SDS011;2854;42.692;23.364;2023-04-03T08:01:40;17.50;;;8.80;;
5662;SDS011;2854;42.692;23.364;2023-04-03T08:04:06;14.30;;;9.87;;
5662;SDS011;2854;42.692;23.364;2023-04-03T08:06:31;18.80;;;9.97;;
5662;SDS011;2854;42.692;23.364;2023-04-03T08:08:59;22.20;;;8.93;;
5662;SDS011;2854;42.692;23.364;2023-04-03T08:11:25;15.30;;;9.40;;
5662;SDS011;2854;42.692;23.364;2023-04-03T08:13:51;11.30;;;8.63;;
5662;SDS011;2854;42.692;23.364;2023-04-03T08:16:17;13.50;;;8.90;;
5662;SDS011;2854;42.692;23.364;2023-04-03T08:18:43;10.87;;;8.47;;
5662;SDS011;2854;42.692;23.364;2023-04-03T08:21:09;15.23;;;8.93;;
5662;SDS011;2854;42.692;23.364;2023-04-03T08:23:34;13.27;;;9.07;;
5662;SDS011;2854;42.692;23.364;2023-04-03T08:26:04;35.07;;;10.50;;
5662;SDS011;2854;42.692;23.364;2023-04-03T08:28:30;17.90;;;9.10;;
5662;SDS011;2854;42.692;23.364;2023-04-03T08:30:55;17.10;;;9.77;;
5662;SDS011;2854;42.692;23.364;2023-04-03T08:33:21;19.57;;;9.80;;
5662;SDS011;2854;42.692;23.364;2023-04-03T08:35:46;8.70;;;7.40;;
5662;SDS011;2854;42.692;23.364;2023-04-03T08:38:11;19.17;;;9.27;;
5662;SDS011;2854;42.692;23.364;2023-04-03T08:40:37;17.00;;;8.60;;
5662;SDS011;2854;42.692;23.364;2023-04-03T08:45:52;15.63;;;7.30;;
5662;SDS011;2854;42.692;23.364;2023-04-03T08:48:19;14.90;;;7.90;;
5662;SDS011;2854;42.692;23.364;2023-04-03T08:50:47;13.47;;;8.63;;
5662;SDS011;2854;42.692;23.364;2023-04-03T08:53:15;12.63;;;7.10;;
5662;SDS011;2854;42.692;23.364;2023-04-03T08:55:45;11.20;;;7.90;;
5662;SDS011;2854;42.692;23.364;2023-04-03T09:03:18;15.97;;;8.47;;
5662;SDS011;2854;42.692;23.364;2023-04-03T09:10:44;14.70;;;7.23;;
5662;SDS011;2854;42.692;23.364;2023-04-03T09:15:38;9.80;;;6.17;;
5662;SDS011;2854;42.692;23.364;2023-04-03T09:20:59;15.60;;;8.10;;
5662;SDS011;2854;42.692;23.364;2023-04-03T09:23:48;12.07;;;7.57;;
5662;SDS011;2854;42.692;23.364;2023-04-03T09:26:31;12.03;;;8.00;;
5662;SDS011;2854;42.692;23.364;2023-04-03T09:29:00;15.97;;;9.03;;
5662;SDS011;2854;42.692;23.364;2023-04-03T09:31:29;12.47;;;8.37;;
5662;SDS011;2854;42.692;23.364;2023-04-03T09:33:59;10.67;;;8.07;;
5662;SDS011;2854;42.692;23.364;2023-04-03T09:39:09;20.90;;;10.13;;
5662;SDS011;2854;42.692;23.364;2023-04-03T09:41:35;21.47;;;10.60;;
5662;SDS011;2854;42.692;23.364;2023-04-03T09:44:00;14.43;;;8.77;;
5662;SDS011;2854;42.692;23.364;2023-04-03T09:46:33;14.77;;;8.80;;
5662;SDS011;2854;42.692;23.364;2023-04-03T09:49:00;9.07;;;7.47;;
5662;SDS011;2854;42.692;23.364;2023-04-03T09:51:27;10.63;;;7.87;;
5662;SDS011;2854;42.692;23.364;2023-04-03T09:53:53;12.97;;;7.93;;
5662;SDS011;2854;42.692;23.364;2023-04-03T10:06:36;9.97;;;7.13;;
5662;SDS011;2854;42.692;23.364;2023-04-03T10:09:06;9.30;;;6.20;;
5662;SDS011;2854;42.692;23.364;2023-04-03T10:11:31;12.90;;;8.20;;
5662;SDS011;2854;42.692;23.364;2023-04-03T10:13:58;10.63;;;7.57;;
5662;SDS011;2854;42.692;23.364;2023-04-03T10:16:26;12.30;;;7.80;;
5662;SDS011;2854;42.692;23.364;2023-04-03T10:21:33;8.57;;;6.93;;
5662;SDS011;2854;42.692;23.364;2023-04-03T10:29:00;9.70;;;6.57;;
5662;SDS011;2854;42.692;23.364;2023-04-03T10:31:31;10.60;;;6.23;;
5662;SDS011;2854;42.692;23.364;2023-04-03T10:34:05;26.40;;;5.87;;
5662;SDS011;2854;42.692;23.364;2023-04-03T10:46:50;8.50;;;6.00;;
5662;SDS011;2854;42.692;23.364;2023-04-03T10:51:45;5.63;;;5.10;;
5662;SDS011;2854;42.692;23.364;2023-04-03T10:56:41;6.37;;;4.90;;
5662;SDS011;2854;42.692;23.364;2023-04-03T11:01:39;5.10;;;4.20;;
5662;SDS011;2854;42.692;23.364;2023-04-03T11:04:06;5.47;;;4.00;;
5662;SDS011;2854;42.692;23.364;2023-04-03T11:06:35;6.13;;;4.40;;
5662;SDS011;2854;42.692;23.364;2023-04-03T11:09:02;5.40;;;4.17;;
5662;SDS011;2854;42.692;23.364;2023-04-03T11:11:31;3.10;;;2.90;;
5662;SDS011;2854;42.692;23.364;2023-04-03T11:16:24;2.90;;;2.70;;
5662;SDS011;2854;42.692;23.364;2023-04-03T11:18:51;4.07;;;3.00;;
5662;SDS011;2854;42.692;23.364;2023-04-03T11:21:22;2.83;;;2.57;;
5662;SDS011;2854;42.692;23.364;2023-04-03T11:23:51;5.03;;;2.40;;
5662;SDS011;2854;42.692;23.364;2023-04-03T11:26:21;2.23;;;2.03;;
5662;SDS011;2854;42.692;23.364;2023-04-03T11:28:51;2.10;;;2.00;;
5662;SDS011;2854;42.692;23.364;2023-04-03T11:38:46;2.90;;;2.60;;
5662;SDS011;2854;42.692;23.364;2023-04-03T11:41:12;3.20;;;2.20;;
5662;SDS011;2854;42.692;23.364;2023-04-03T11:44:01;2.70;;;2.50;;
5662;SDS011;2854;42.692;23.364;2023-04-03T11:49:49;3.93;;;2.33;;
5662;SDS011;2854;42.692;23.364;2023-04-03T11:51:53;2.43;;;2.23;;
5662;SDS011;2854;42.692;23.364;2023-04-03T11:54:35;2.67;;;2.47;;
5662;SDS011;2854;42.692;23.364;2023-04-03T11:57:14;2.27;;;2.00;;
5662;SDS011;2854;42.692;23.364;2023-04-03T11:59:46;2.23;;;2.03;;
5662;SDS011;2854;42.692;23.364;2023-04-03T12:05:37;2.90;;;1.70;;
5662;SDS011;2854;42.692;23.364;2023-04-03T12:07:43;3.83;;;2.63;;
5662;SDS011;2854;42.692;23.364;2023-04-03T12:10:30;2.30;;;2.10;;
5662;SDS011;2854;42.692;23.364;2023-04-03T12:12:55;2.53;;;2.30;;
5662;SDS011;2854;42.692;23.364;2023-04-03T12:17:47;2.37;;;2.17;;
5662;SDS011;2854;42.692;23.364;2023-04-03T12:25:49;1.63;;;1.53;;
5662;SDS011;2854;42.692;23.364;2023-04-03T12:28:14;3.03;;;2.17;;
5662;SDS011;2854;42.692;23.364;2023-04-03T12:30:40;2.23;;;2.13;;
5662;SDS011;2854;42.692;23.364;2023-04-03T12:35:36;4.70;;;3.30;;
5662;SDS011;2854;42.692;23.364;2023-04-03T12:43:09;5.67;;;5.07;;
5662;SDS011;2854;42.692;23.364;2023-04-03T12:48:25;9.90;;;5.47;;
5662;SDS011;2854;42.692;23.364;2023-04-03T12:50:51;7.20;;;4.80;;
5662;SDS011;2854;42.692;23.364;2023-04-03T12:53:18;4.10;;;3.70;;
5662;SDS011;2854;42.692;23.364;2023-04-03T12:55:44;10.17;;;5.40;;
5662;SDS011;2854;42.692;23.364;2023-04-03T12:58:13;10.97;;;4.17;;
5662;SDS011;2854;42.692;23.364;2023-04-03T13:00:40;6.97;;;5.03;;
5662;SDS011;2854;42.692;23.364;2023-04-03T13:03:06;4.53;;;3.67;;
5662;SDS011;2854;42.692;23.364;2023-04-03T13:05:31;4.70;;;4.03;;
5662;SDS011;2854;42.692;23.364;2023-04-03T13:07:59;6.87;;;4.30;;
5662;SDS011;2854;42.692;23.364;2023-04-03T13:10:24;3.40;;;3.10;;
5662;SDS011;2854;42.692;23.364;2023-04-03T13:17:41;5.30;;;4.43;;
5662;SDS011;2854;42.692;23.364;2023-04-03T13:20:16;5.50;;;4.00;;
5662;SDS011;2854;42.692;23.364;2023-04-03T13:22:48;6.30;;;3.97;;
5662;SDS011;2854;42.692;23.364;2023-04-03T13:25:14;4.77;;;4.37;;
5662;SDS011;2854;42.692;23.364;2023-04-03T13:27:41;4.60;;;4.07;;
5662;SDS011;2854;42.692;23.364;2023-04-03T13:30:21;5.53;;;4.60;;
5662;SDS011;2854;42.692;23.364;2023-04-03T13:32:48;13.80;;;5.67;;
5662;SDS011;2854;42.692;23.364;2023-04-03T13:37:55;7.70;;;5.30;;
5662;SDS011;2854;42.692;23.364;2023-04-03T13:40:20;5.03;;;4.50;;
5662;SDS011;2854;42.692;23.364;2023-04-03T13:42:46;5.47;;;4.97;;
5662;SDS011;2854;42.692;23.364;2023-04-03T13:45:26;5.73;;;4.50;;
5662;SDS011;2854;42.692;23.364;2023-04-03T13:48:39;3.90;;;3.60;;
5662;SDS011;2854;42.692;23.364;2023-04-03T13:51:16;3.47;;;3.17;;
5662;SDS011;2854;42.692;23.364;2023-04-03T13:53:31;3.63;;;3.30;;
5662;SDS011;2854;42.692;23.364;2023-04-03T13:58:26;5.87;;;4.37;;
5662;SDS011;2854;42.692;23.364;2023-04-03T14:00:54;4.10;;;3.80;;
5662;SDS011;2854;42.692;23.364;2023-04-03T14:03:36;6.50;;;4.50;;
5662;SDS011;2854;42.692;23.364;2023-04-03T14:06:04;5.10;;;3.90;;
5662;SDS011;2854;42.692;23.364;2023-04-03T14:08:30;2.60;;;2.40;;
5662;SDS011;2854;42.692;23.364;2023-04-03T14:10:55;4.17;;;3.77;;
5662;SDS011;2854;42.692;23.364;2023-04-03T14:13:20;5.03;;;4.10;;
5662;SDS011;2854;42.692;23.364;2023-04-03T14:15:46;3.53;;;3.23;;
5662;SDS011;2854;42.692;23.364;2023-04-03T14:18:14;6.17;;;3.80;;
5662;SDS011;2854;42.692;23.364;2023-04-03T14:20:39;3.50;;;3.20;;
5662;SDS011;2854;42.692;23.364;2023-04-03T14:23:05;3.43;;;3.17;;
5662;SDS011;2854;42.692;23.364;2023-04-03T14:25:30;2.80;;;2.70;;
5662;SDS011;2854;42.692;23.364;2023-04-03T14:27:55;4.30;;;3.50;;
5662;SDS011;2854;42.692;23.364;2023-04-03T14:30:22;4.27;;;3.00;;
5662;SDS011;2854;42.692;23.364;2023-04-03T14:32:48;3.50;;;3.23;;
5662;SDS011;2854;42.692;23.364;2023-04-03T14:35:14;12.77;;;3.63;;
5662;SDS011;2854;42.692;23.364;2023-04-03T14:37:40;3.90;;;3.40;;
5662;SDS011;2854;42.692;23.364;2023-04-03T14:40:06;4.13;;;3.80;;
5662;SDS011;2854;42.692;23.364;2023-04-03T14:42:32;7.37;;;4.13;;
5662;SDS011;2854;42.692;23.364;2023-04-03T14:44:59;3.70;;;3.20;;
5662;SDS011;2854;42.692;23.364;2023-04-03T14:47:26;4.10;;;3.63;;
5662;SDS011;2854;42.692;23.364;2023-04-03T14:49:53;6.90;;;4.23;;
5662;SDS011;2854;42.692;23.364;2023-04-03T14:52:26;4.10;;;3.73;;
5662;SDS011;2854;42.692;23.364;2023-04-03T14:54:51;5.67;;;4.43;;
5662;SDS011;2854;42.692;23.364;2023-04-03T14:57:17;4.60;;;3.77;;
5662;SDS011;2854;42.692;23.364;2023-04-03T14:59:43;3.83;;;3.20;;
5662;SDS011;2854;42.692;23.364;2023-04-03T15:04:40;3.50;;;2.57;;
5662;SDS011;2854;42.692;23.364;2023-04-03T15:07:07;2.97;;;2.77;;
5662;SDS011;2854;42.692;23.364;2023-04-03T15:09:34;4.60;;;3.63;;
5662;SDS011;2854;42.692;23.364;2023-04-03T15:12:00;3.30;;;3.07;;
5662;SDS011;2854;42.692;23.364;2023-04-03T15:14:26;3.43;;;3.10;;
5662;SDS011;2854;42.692;23.364;2023-04-03T15:16:51;3.70;;;3.50;;
5662;SDS011;2854;42.692;23.364;2023-04-03T15:19:16;3.73;;;3.43;;
5662;SDS011;2854;42.692;23.364;2023-04-03T15:21:42;3.97;;;3.57;;
5662;SDS011;2854;42.692;23.364;2023-04-03T15:24:08;3.60;;;3.20;;
5662;SDS011;2854;42.692;23.364;2023-04-03T15:26:33;3.73;;;3.47;;
5662;SDS011;2854;42.692;23.364;2023-04-03T15:28:59;4.20;;;3.90;;
5662;SDS011;2854;42.692;23.364;2023-04-03T15:31:24;4.20;;;3.90;;
5662;SDS011;2854;42.692;23.364;2023-04-03T15:33:49;4.27;;;3.57;;
5662;SDS011;2854;42.692;23.364;2023-04-03T15:36:15;4.27;;;3.90;;
5662;SDS011;2854;42.692;23.364;2023-04-03T15:38:40;5.77;;;4.33;;
5662;SDS011;2854;42.692;23.364;2023-04-03T15:41:05;4.70;;;4.30;;
5662;SDS011;2854;42.692;23.364;2023-04-03T15:43:31;4.43;;;3.97;;
5662;SDS011;2854;42.692;23.364;2023-04-03T15:45:56;3.37;;;3.13;;
5662;SDS011;2854;42.692;23.364;2023-04-03T15:48:23;2.97;;;2.77;;
5662;SDS011;2854;42.692;23.364;2023-04-03T15:50:48;3.20;;;3.00;;
5662;SDS011;2854;42.692;23.364;2023-04-03T15:53:13;5.43;;;4.50;;
5662;SDS011;2854;42.692;23.364;2023-04-03T15:55:38;4.53;;;3.60;;
5662;SDS011;2854;42.692;23.364;2023-04-03T15:58:04;8.47;;;5.30;;
5662;SDS011;2854;42.692;23.364;2023-04-03T16:00:30;5.03;;;4.10;;
5662;SDS011;2854;42.692;23.364;2023-04-03T16:02:57;8.00;;;5.00;;
5662;SDS011;2854;42.692;23.364;2023-04-03T16:05:24;7.57;;;4.07;;
5662;SDS011;2854;42.692;23.364;2023-04-03T16:07:49;7.37;;;4.90;;
5662;SDS011;2854;42.692;23.364;2023-04-03T16:10:15;13.50;;;4.70;;
5662;SDS011;2854;42.692;23.364;2023-04-03T16:12:41;8.03;;;5.23;;
5662;SDS011;2854;42.692;23.364;2023-04-03T16:15:06;9.30;;;6.40;;
5662;SDS011;2854;42.692;23.364;2023-04-03T16:17:32;10.63;;;6.70;;
5662;SDS011;2854;42.692;23.364;2023-04-03T16:19:58;10.20;;;6.40;;
5662;SDS011;2854;42.692;23.364;2023-04-03T16:22:23;11.40;;;6.67;;
5662;SDS011;2854;42.692;23.364;2023-04-03T16:24:49;13.20;;;6.80;;
5662;SDS011;2854;42.692;23.364;2023-04-03T16:27:15;12.60;;;6.30;;
5662;SDS011;2854;42.692;23.364;2023-04-03T16:29:41;11.30;;;7.10;;
5662;SDS011;2854;42.692;23.364;2023-04-03T16:32:06;7.00;;;6.00;;
5662;SDS011;2854;42.692;23.364;2023-04-03T16:34:31;5.33;;;4.70;;
5662;SDS011;2854;42.692;23.364;2023-04-03T16:36:57;7.43;;;4.00;;
5662;SDS011;2854;42.692;23.364;2023-04-03T16:39:23;4.13;;;3.73;;
5662;SDS011;2854;42.692;23.364;2023-04-03T16:41:48;5.07;;;4.57;;